Time;durP1;ratioP1;P1;durP2;ratioP2;P2;SDS_P1;SDS_P2;PMS_P1;PMS_P2;Temp;Humidity;BMP_temperature;BMP_pressure;BME280_temperature;BME280_humidity;BME280_pressure;Samples;Min_cycle;Max_cycle;Signal;HPM_P1;HPM_P2
2023/08/27 00:00:38;;;;;;;5.57;2.38;;;14.80;99.90;;;;;;5020723;28;20194;-66
2023/08/27 00:03:06;;;;;;;6.15;1.80;;;14.70;99.90;;;;;;5014573;28;20236;-66
2023/08/27 00:05:32;;;;;;;1.50;1.40;;;14.70;99.90;;;;;;5025122;28;20279;-66
2023/08/27 00:08:01;;;;;;;1.70;1.60;;;14.70;99.90;;;;;;5015979;28;20205;-66
2023/08/27 00:10:27;;;;;;;1.90;1.70;;;14.80;99.90;;;;;;5024262;28;20205;-66
2023/08/27 00:12:54;;;;;;;1.85;1.70;;;;;;;;;;4993583;28;20213;-66
2023/08/27 00:15:21;;;;;;;3.17;1.75;;;14.70;99.90;;;;;;5023969;28;20419;-66
2023/08/27 00:17:48;;;;;;;1.75;1.65;;;14.70;99.90;;;;;;5023220;28;20230;-66
2023/08/27 00:20:15;;;;;;;3.30;1.70;;;14.70;99.90;;;;;;5010683;28;20205;-66
2023/08/27 00:22:42;;;;;;;2.33;1.70;;;14.60;99.90;;;;;;5014261;28;20206;-66
2023/08/27 00:25:10;;;;;;;7.30;1.88;;;14.60;99.90;;;;;;5026134;28;20202;-66
2023/08/27 00:27:37;;;;;;;2.47;1.63;;;14.60;99.90;;;;;;4996381;28;20287;-66
2023/08/27 00:30:05;;;;;;;5.45;2.13;;;14.50;99.90;;;;;;5025650;28;20201;-66
2023/08/27 00:32:33;;;;;;;5.28;1.92;;;14.50;99.90;;;;;;5029430;28;20593;-66
2023/08/27 00:35:00;;;;;;;2.70;2.30;;;14.50;99.90;;;;;;5016858;28;20207;-66
2023/08/27 00:37:27;;;;;;;1.63;1.52;;;14.50;99.90;;;;;;5015626;28;20260;-66
2023/08/27 00:39:53;;;;;;;5.60;2.20;;;14.50;99.90;;;;;;5027431;28;20200;-66
2023/08/27 00:42:22;;;;;;;2.17;1.80;;;14.70;99.90;;;;;;4995429;28;20220;-66
2023/08/27 00:44:49;;;;;;;2.78;1.70;;;14.50;99.90;;;;;;5025318;28;20742;-66
2023/08/27 00:47:17;;;;;;;2.30;2.10;;;14.40;99.90;;;;;;5020594;28;20978;-66
2023/08/27 00:49:45;;;;;;;2.40;2.10;;;14.40;99.90;;;;;;5024569;28;20193;-66
2023/08/27 00:52:12;;;;;;;2.30;2.08;;;14.40;99.90;;;;;;5003104;28;20582;-66
2023/08/27 00:54:40;;;;;;;2.05;1.88;;;14.50;99.90;;;;;;5031677;28;20201;-66
2023/08/27 00:57:08;;;;;;;3.33;2.53;;;14.70;99.90;;;;;;4998779;28;20592;-66
2023/08/27 00:59:36;;;;;;;2.30;2.08;;;14.30;99.90;;;;;;5020374;28;20229;-66
2023/08/27 01:02:04;;;;;;;4.90;2.00;;;14.30;99.90;;;;;;5019263;28;20242;-66
2023/08/27 01:04:31;;;;;;;2.08;1.90;;;14.30;99.90;;;;;;5025197;28;20201;-66
2023/08/27 01:07:05;;;;;;;2.30;2.10;;;14.20;99.90;;;;;;5011840;28;20213;-66
2023/08/27 01:09:37;;;;;;;2.60;2.38;;;14.20;99.90;;;;;;5019073;28;20202;-66
2023/08/27 01:12:09;;;;;;;4.40;2.10;;;14.30;99.90;;;;;;5003912;28;20236;-66
2023/08/27 01:14:39;;;;;;;3.42;2.40;;;14.60;99.90;;;;;;4991034;28;20235;-66
2023/08/27 01:17:07;;;;;;;3.05;2.45;;;14.30;99.90;;;;;;5010396;28;20226;-66
2023/08/27 01:19:35;;;;;;;2.80;2.60;;;14.30;99.90;;;;;;5006692;28;20204;-66
2023/08/27 01:22:03;;;;;;;2.72;2.53;;;14.30;99.90;;;;;;5020090;28;21010;-66
2023/08/27 01:24:30;;;;;;;4.15;2.38;;;14.40;99.90;;;;;;4999371;28;20225;-66
2023/08/27 01:27:05;;;;;;;3.42;2.42;;;14.40;99.90;;;;;;5007256;28;20233;-66
2023/08/27 01:29:37;;;;;;;2.40;2.20;;;14.40;99.90;;;;;;4984898;28;20208;-65
2023/08/27 01:32:11;;;;;;;2.45;2.15;;;15.30;99.90;;;;;;5006708;28;20206;-66
2023/08/27 01:34:40;;;;;;;4.20;2.50;;;14.50;99.90;;;;;;5014746;28;20204;-66
2023/08/27 01:37:09;;;;;;;2.42;2.22;;;14.40;99.90;;;;;;5023865;28;20225;-66
2023/08/27 01:39:35;;;;;;;2.83;2.60;;;14.50;99.90;;;;;;5013526;28;20194;-66
2023/08/27 01:42:04;;;;;;;3.60;2.35;;;14.50;99.90;;;;;;5027485;28;20304;-66
2023/08/27 01:44:31;;;;;;;2.10;1.90;;;14.50;99.90;;;;;;5000622;28;20691;-66
2023/08/27 01:46:57;;;;;;;2.35;1.95;;;14.50;99.90;;;;;;5012062;28;20240;-66
2023/08/27 01:49:24;;;;;;;3.83;2.35;;;14.40;99.90;;;;;;5017738;28;20702;-66
2023/08/27 01:51:51;;;;;;;4.70;2.50;;;14.40;99.90;;;;;;5028006;28;20202;-66
2023/08/27 01:54:19;;;;;;;2.78;2.50;;;14.40;99.90;;;;;;5025654;28;20320;-66
2023/08/27 01:56:46;;;;;;;3.80;2.55;;;14.30;99.90;;;;;;5014358;28;20204;-66
2023/08/27 01:59:13;;;;;;;2.67;2.47;;;14.30;99.90;;;;;;5025820;28;20225;-66
2023/08/27 02:02:02;;;;;;;2.70;2.50;;;14.30;99.90;;;;;;4992362;28;20809;-66
2023/08/27 02:04:29;;;;;;;4.28;2.78;;;14.90;99.90;;;;;;5010565;28;20209;-65
2023/08/27 02:06:56;;;;;;;3.13;2.83;;;14.30;99.90;;;;;;5023996;28;20216;-66
2023/08/27 02:09:24;;;;;;;2.42;2.22;;;14.20;99.90;;;;;;5022205;28;20198;-66
2023/08/27 02:11:51;;;;;;;2.85;2.65;;;14.20;99.90;;;;;;5018122;28;21076;-66
2023/08/27 02:14:18;;;;;;;2.70;2.50;;;14.30;99.90;;;;;;5026233;28;20220;-66
2023/08/27 02:16:45;;;;;;;2.90;2.47;;;14.20;99.90;;;;;;4997794;28;20213;-66
2023/08/27 02:19:12;;;;;;;2.75;2.55;;;14.20;99.90;;;;;;5016598;28;20232;-66
2023/08/27 02:21:38;;;;;;;2.90;2.70;;;14.30;99.90;;;;;;5009945;28;20212;-66
2023/08/27 02:24:05;;;;;;;4.07;2.60;;;14.20;99.90;;;;;;5024203;28;20205;-66
2023/08/27 02:26:34;;;;;;;4.75;2.75;;;14.30;99.90;;;;;;5013121;28;20225;-66
2023/08/27 02:29:01;;;;;;;5.40;2.83;;;14.20;99.90;;;;;;5024087;28;20667;-66
2023/08/27 02:31:28;;;;;;;3.10;2.42;;;14.20;99.90;;;;;;4990771;28;20225;-66
2023/08/27 02:33:54;;;;;;;2.67;2.47;;;14.20;99.90;;;;;;5010291;28;20201;-66
2023/08/27 02:36:21;;;;;;;3.00;2.55;;;14.40;99.90;;;;;;5025476;28;20201;-66
2023/08/27 02:38:48;;;;;;;3.03;2.70;;;14.50;99.90;;;;;;5022438;28;20233;-66
2023/08/27 02:41:15;;;;;;;3.67;3.17;;;14.30;99.90;;;;;;5016086;28;20592;-66
2023/08/27 02:43:43;;;;;;;4.10;2.90;;;14.00;99.90;;;;;;5024414;28;20468;-66
2023/08/27 02:46:10;;;;;;;3.97;2.70;;;14.30;99.90;;;;;;4993584;28;20229;-66
2023/08/27 02:48:36;;;;;;;2.75;2.55;;;14.10;99.90;;;;;;5015475;28;20198;-66
2023/08/27 02:51:03;;;;;;;2.92;2.70;;;14.30;99.90;;;;;;5022183;28;20209;-66
2023/08/27 02:53:30;;;;;;;3.50;2.65;;;14.30;99.90;;;;;;5021584;28;20580;-66
2023/08/27 02:55:57;;;;;;;2.80;2.58;;;14.20;99.90;;;;;;5014002;28;20235;-66
2023/08/27 02:58:24;;;;;;;3.00;2.75;;;14.20;99.90;;;;;;5010664;28;20244;-66
2023/08/27 03:00:53;;;;;;;3.95;2.60;;;14.10;99.90;;;;;;4993728;28;20775;-66
2023/08/27 03:03:19;;;;;;;3.15;2.85;;;13.90;99.90;;;;;;5003018;28;20302;-66
2023/08/27 03:05:47;;;;;;;3.22;2.50;;;13.90;99.90;;;;;;5011047;28;20213;-66
2023/08/27 03:08:13;;;;;;;2.72;2.50;;;13.80;99.90;;;;;;5008676;28;20215;-66
2023/08/27 03:10:40;;;;;;;4.78;2.55;;;13.80;99.90;;;;;;5006839;28;20224;-66
2023/08/27 03:13:07;;;;;;;3.00;2.70;;;13.70;99.90;;;;;;5015297;28;20205;-66
2023/08/27 03:15:34;;;;;;;3.55;2.75;;;13.80;99.90;;;;;;4985711;28;20202;-66
2023/08/27 03:18:03;;;;;;;2.42;2.22;;;13.70;99.90;;;;;;5015879;28;20236;-66
2023/08/27 03:20:30;;;;;;;2.97;2.60;;;13.70;99.90;;;;;;5019008;28;20201;-66
2023/08/27 03:22:57;;;;;;;5.30;2.17;;;13.70;99.90;;;;;;5023943;28;20205;-66
2023/08/27 03:25:24;;;;;;;2.72;2.50;;;;;;;;;;5024840;28;20301;-66
2023/08/27 03:27:51;;;;;;;3.95;2.60;;;13.70;99.90;;;;;;5013389;28;20244;-65
2023/08/27 03:30:18;;;;;;;3.65;2.58;;;13.70;99.90;;;;;;5013855;28;20204;-65
2023/08/27 03:32:44;;;;;;;3.13;2.60;;;13.80;99.90;;;;;;4997836;28;20589;-66
2023/08/27 03:35:13;;;;;;;2.95;2.50;;;13.80;99.90;;;;;;5017644;28;20204;-65
2023/08/27 03:37:39;;;;;;;3.25;2.58;;;13.80;99.90;;;;;;5014857;28;20209;-65
2023/08/27 03:40:07;;;;;;;2.50;2.30;;;13.90;99.90;;;;;;5025324;28;20198;-66
2023/08/27 03:42:34;;;;;;;3.13;2.28;;;13.70;99.90;;;;;;5014720;28;20540;-66
2023/08/27 03:45:01;;;;;;;2.70;2.47;;;13.70;99.90;;;;;;5015678;28;20205;-65
2023/08/27 03:47:28;;;;;;;2.92;2.28;;;13.70;99.90;;;;;;5006261;28;20193;-66
2023/08/27 03:49:55;;;;;;;3.65;2.45;;;13.70;99.90;;;;;;5013307;28;20324;-66
2023/08/27 03:52:23;;;;;;;2.67;2.47;;;13.60;99.90;;;;;;5007844;28;20209;-65
2023/08/27 03:54:50;;;;;;;2.97;2.78;;;13.70;99.90;;;;;;5022587;28;20575;-66
2023/08/27 03:57:17;;;;;;;2.80;2.55;;;13.70;99.90;;;;;;5024285;28;20675;-66
2023/08/27 03:59:44;;;;;;;2.95;2.70;;;13.70;99.90;;;;;;5013347;28;20415;-65
2023/08/27 04:02:11;;;;;;;2.80;2.28;;;13.60;99.90;;;;;;5021478;28;20654;-66
2023/08/27 04:04:38;;;;;;;3.10;2.35;;;13.60;99.90;;;;;;4983720;28;20217;-66
2023/08/27 04:07:05;;;;;;;3.00;2.80;;;13.60;99.90;;;;;;5008520;28;20209;-65
2023/08/27 04:09:33;;;;;;;4.10;2.70;;;13.50;99.90;;;;;;5022582;28;20199;-65
2023/08/27 04:12:01;;;;;;;2.72;2.45;;;13.60;99.90;;;;;;5023165;28;24967;-65
2023/08/27 04:14:29;;;;;;;3.00;2.70;;;13.60;99.90;;;;;;5012951;28;20202;-66
2023/08/27 04:16:56;;;;;;;2.85;2.60;;;13.60;99.90;;;;;;5018499;28;20205;-66
2023/08/27 04:19:22;;;;;;;3.47;2.38;;;13.60;99.90;;;;;;4981299;28;20225;-66
2023/08/27 04:21:49;;;;;;;2.55;2.28;;;13.50;99.90;;;;;;5008442;28;20205;-66
2023/08/27 04:24:16;;;;;;;4.65;2.72;;;13.50;99.90;;;;;;5021922;28;20295;-66
2023/08/27 04:26:44;;;;;;;15.65;2.72;;;13.50;99.90;;;;;;5014523;28;20229;-65
2023/08/27 04:29:11;;;;;;;3.75;3.08;;;13.40;99.90;;;;;;5013346;28;20221;-66
2023/08/27 04:31:38;;;;;;;6.43;3.03;;;13.50;99.90;;;;;;5024692;28;20201;-65
2023/08/27 04:34:05;;;;;;;2.83;2.63;;;13.60;99.90;;;;;;4991157;28;20221;-66
2023/08/27 04:36:32;;;;;;;2.83;2.60;;;13.50;99.90;;;;;;5030414;28;20202;-65
2023/08/27 04:38:58;;;;;;;3.85;2.67;;;13.60;99.90;;;;;;5014761;28;20218;-65
2023/08/27 04:41:25;;;;;;;3.35;2.72;;;13.60;99.90;;;;;;5009879;28;20229;-66
2023/08/27 04:43:53;;;;;;;3.85;2.80;;;13.60;99.90;;;;;;5024560;28;20613;-66
2023/08/27 04:46:20;;;;;;;3.10;2.55;;;13.60;99.90;;;;;;5009669;28;20227;-65
2023/08/27 04:48:47;;;;;;;3.83;2.70;;;13.80;99.90;;;;;;5026130;28;20776;-66
2023/08/27 04:51:14;;;;;;;4.90;2.78;;;13.60;99.90;;;;;;4988761;28;20567;-66
2023/08/27 04:53:41;;;;;;;3.75;2.92;;;13.60;99.90;;;;;;5015448;28;20214;-65
2023/08/27 04:56:08;;;;;;;5.03;3.10;;;13.70;99.90;;;;;;5015525;28;20202;-66
2023/08/27 04:58:34;;;;;;;3.40;3.08;;;13.70;99.90;;;;;;5024100;28;21027;-66
2023/08/27 05:01:02;;;;;;;4.72;3.13;;;13.70;99.90;;;;;;5015073;28;20228;-65
2023/08/27 05:03:29;;;;;;;4.20;3.00;;;13.70;99.90;;;;;;5010232;28;20238;-65
2023/08/27 05:05:56;;;;;;;3.70;3.33;;;13.80;99.90;;;;;;4991426;28;20687;-66
2023/08/27 05:08:23;;;;;;;4.63;3.10;;;13.70;99.90;;;;;;5012651;28;20205;-66
2023/08/27 05:10:49;;;;;;;7.03;3.28;;;13.80;99.90;;;;;;5023300;28;20198;-66
2023/08/27 05:13:17;;;;;;;4.57;3.47;;;13.80;99.90;;;;;;5017585;28;20202;-66
2023/08/27 05:15:43;;;;;;;5.95;3.45;;;13.80;99.90;;;;;;5019486;28;20198;-66
2023/08/27 05:18:11;;;;;;;3.10;2.85;;;13.70;99.90;;;;;;4994317;28;20201;-66
2023/08/27 05:20:39;;;;;;;3.58;3.28;;;13.70;99.90;;;;;;5020189;28;20193;-65
2023/08/27 05:23:05;;;;;;;4.78;2.88;;;13.70;99.90;;;;;;4976677;28;20217;-66
2023/08/27 05:25:34;;;;;;;4.85;3.30;;;13.60;99.90;;;;;;5012881;28;20200;-66
2023/08/27 05:28:01;;;;;;;4.35;3.58;;;13.40;99.90;;;;;;5018414;28;20217;-66
2023/08/27 05:30:28;;;;;;;3.22;2.90;;;13.60;99.90;;;;;;5013653;28;20205;-65
2023/08/27 05:32:55;;;;;;;5.15;3.88;;;13.50;99.90;;;;;;5015065;28;20201;-65
2023/08/27 05:35:24;;;;;;;4.78;2.92;;;13.70;99.90;;;;;;5020531;28;20689;-65
2023/08/27 05:37:51;;;;;;;4.00;3.47;;;13.70;99.90;;;;;;4992719;28;20217;-65
2023/08/27 05:40:18;;;;;;;6.80;3.72;;;;;;;;;;5013702;28;20232;-66
2023/08/27 05:42:45;;;;;;;4.35;3.47;;;13.80;99.90;;;;;;5027073;28;20231;-66
2023/08/27 05:45:12;;;;;;;4.07;3.50;;;13.80;99.90;;;;;;5023967;28;20205;-66
2023/08/27 05:47:38;;;;;;;3.60;2.90;;;13.70;99.90;;;;;;5008439;28;20202;-66
2023/08/27 05:50:06;;;;;;;3.80;3.10;;;13.80;99.90;;;;;;5019939;28;20208;-66
2023/08/27 05:52:34;;;;;;;3.60;3.15;;;13.80;99.90;;;;;;4994231;28;20228;-66
2023/08/27 05:55:01;;;;;;;4.57;3.45;;;14.00;99.90;;;;;;5016183;28;20670;-66
2023/08/27 05:57:28;;;;;;;3.55;3.22;;;14.00;99.90;;;;;;5020313;28;20678;-66
2023/08/27 05:59:55;;;;;;;4.97;3.35;;;14.00;99.90;;;;;;5021029;28;20574;-66
2023/08/27 06:02:22;;;;;;;3.42;3.10;;;14.10;99.90;;;;;;5010844;28;20333;-66
2023/08/27 06:04:49;;;;;;;5.75;3.17;;;13.60;99.90;;;;;;5025339;28;20197;-66
2023/08/27 06:07:15;;;;;;;4.45;3.30;;;14.70;99.90;;;;;;4992434;28;20679;-66
2023/08/27 06:09:43;;;;;;;4.38;3.10;;;14.10;99.90;;;;;;5012204;28;20213;-66
2023/08/27 06:12:10;;;;;;;3.47;2.92;;;14.20;99.90;;;;;;5010662;28;20216;-66
2023/08/27 06:14:37;;;;;;;4.75;2.83;;;14.20;99.90;;;;;;5009027;28;20758;-65
2023/08/27 06:17:04;;;;;;;4.07;3.20;;;14.20;99.90;;;;;;5006875;28;20219;-66
2023/08/27 06:19:31;;;;;;;3.80;3.25;;;14.20;99.90;;;;;;5010462;28;20321;-66
2023/08/27 06:21:57;;;;;;;4.25;3.22;;;14.30;99.90;;;;;;5026456;28;20194;-66
2023/08/27 06:24:24;;;;;;;3.35;2.92;;;14.60;99.90;;;;;;4992098;28;20218;-66
2023/08/27 06:26:52;;;;;;;3.70;3.22;;;14.50;99.90;;;;;;5028532;28;20270;-66
2023/08/27 06:29:19;;;;;;;3.33;2.97;;;14.60;99.90;;;;;;5018832;28;21007;-66
2023/08/27 06:31:46;;;;;;;4.45;3.25;;;14.70;99.90;;;;;;5013526;28;20212;-66
2023/08/27 06:34:13;;;;;;;3.35;3.05;;;14.70;99.90;;;;;;5012941;28;20205;-66
2023/08/27 06:36:40;;;;;;;3.30;3.00;;;14.80;99.90;;;;;;5025920;28;20205;-66
2023/08/27 06:39:07;;;;;;;4.75;3.33;;;14.90;99.90;;;;;;4996815;28;20225;-66
2023/08/27 06:41:34;;;;;;;4.80;3.70;;;15.00;99.90;;;;;;5031627;28;20199;-66
2023/08/27 06:44:02;;;;;;;6.57;3.67;;;15.00;99.90;;;;;;5021274;28;20582;-65
2023/08/27 06:46:29;;;;;;;4.80;3.00;;;15.50;99.90;;;;;;5019176;28;20968;-66
2023/08/27 06:48:56;;;;;;;4.95;2.92;;;15.20;99.90;;;;;;5024121;28;20286;-66
2023/08/27 06:51:23;;;;;;;5.28;3.22;;;15.20;99.90;;;;;;5020083;28;20205;-66
2023/08/27 06:53:50;;;;;;;4.22;3.40;;;15.20;99.90;;;;;;5033037;28;20662;-66
2023/08/27 06:56:18;;;;;;;5.38;3.03;;;15.30;99.90;;;;;;4994682;28;20365;-66
2023/08/27 06:58:44;;;;;;;5.00;2.83;;;15.40;99.90;;;;;;5027892;28;20204;-66
2023/08/27 07:01:13;;;;;;;4.55;3.45;;;15.40;99.90;;;;;;5015682;28;20224;-66
2023/08/27 07:03:39;;;;;;;3.33;3.03;;;15.50;99.90;;;;;;5022677;28;20223;-66
2023/08/27 07:06:06;;;;;;;5.80;3.42;;;15.50;99.90;;;;;;5019209;28;20198;-66
2023/08/27 07:08:33;;;;;;;3.40;2.90;;;15.50;99.90;;;;;;5028713;28;20198;-66
2023/08/27 07:11:00;;;;;;;3.22;2.90;;;15.60;99.90;;;;;;5000206;28;20213;-66
2023/08/27 07:13:26;;;;;;;4.47;3.03;;;15.60;99.90;;;;;;5024905;28;20209;-66
2023/08/27 07:15:53;;;;;;;5.95;3.33;;;15.70;99.90;;;;;;5027603;28;20201;-66
2023/08/27 07:18:21;;;;;;;4.07;3.30;;;15.70;99.90;;;;;;5010625;28;20216;-66
2023/08/27 07:20:48;;;;;;;5.47;3.47;;;15.90;99.90;;;;;;5026540;28;20239;-66
2023/08/27 07:23:16;;;;;;;8.10;3.25;;;15.80;99.90;;;;;;5012718;28;20210;-66
2023/08/27 07:25:43;;;;;;;3.80;3.20;;;15.90;99.90;;;;;;4998568;28;20221;-66
2023/08/27 07:28:10;;;;;;;3.28;2.97;;;15.90;99.90;;;;;;5024546;28;20217;-66
2023/08/27 07:30:37;;;;;;;6.03;3.42;;;15.90;99.90;;;;;;5023116;28;20198;-66
2023/08/27 07:33:06;;;;;;;7.00;3.25;;;16.00;99.90;;;;;;5017074;28;20666;-66
2023/08/27 07:35:34;;;;;;;4.63;3.22;;;16.10;99.90;;;;;;5016777;28;20631;-66
2023/08/27 07:38:01;;;;;;;4.30;3.40;;;16.10;99.90;;;;;;5015582;28;20197;-66
2023/08/27 07:40:27;;;;;;;3.45;3.15;;;16.10;99.90;;;;;;5021465;28;20236;-66
2023/08/27 07:42:54;;;;;;;3.80;3.15;;;16.20;99.90;;;;;;4990806;28;20971;-66
2023/08/27 07:45:22;;;;;;;4.18;3.05;;;16.20;99.90;;;;;;5025942;28;20867;-66
2023/08/27 07:47:48;;;;;;;2.75;2.55;;;16.30;99.90;;;;;;5029060;28;20201;-66
2023/08/27 07:50:15;;;;;;;3.75;3.08;;;16.30;99.90;;;;;;5012532;28;20210;-66
2023/08/27 07:52:43;;;;;;;3.80;3.47;;;16.40;99.90;;;;;;5017222;28;20232;-66
2023/08/27 07:55:10;;;;;;;3.35;3.05;;;16.50;99.90;;;;;;5025264;28;20202;-66
2023/08/27 07:57:37;;;;;;;4.05;3.22;;;16.40;99.90;;;;;;4988330;28;20221;-66
2023/08/27 08:00:06;;;;;;;4.82;3.78;;;16.40;99.90;;;;;;5022233;28;20243;-66
2023/08/27 08:02:33;;;;;;;4.25;3.85;;;16.50;99.90;;;;;;4999183;28;20237;-67
2023/08/27 08:05:01;;;;;;;8.80;5.32;;;16.50;99.90;;;;;;5011468;28;20630;-66
2023/08/27 08:07:28;;;;;;;5.88;4.22;;;16.50;99.90;;;;;;4998962;28;20194;-66
2023/08/27 08:09:56;;;;;;;5.57;4.82;;;16.50;99.90;;;;;;5016714;28;20210;-66
2023/08/27 08:12:23;;;;;;;5.22;4.72;;;16.50;99.90;;;;;;5015279;28;20285;-66
2023/08/27 08:14:50;;;;;;;5.90;5.18;;;16.50;99.90;;;;;;4987459;28;20224;-66
2023/08/27 08:17:16;;;;;;;6.50;5.40;;;16.50;99.90;;;;;;5019180;28;20205;-66
2023/08/27 08:19:43;;;;;;;6.93;5.45;;;16.50;99.90;;;;;;5024283;28;20583;-66
2023/08/27 08:22:10;;;;;;;7.60;6.80;;;16.60;99.90;;;;;;5005878;28;20212;-66
2023/08/27 08:24:37;;;;;;;8.02;5.90;;;16.50;99.90;;;;;;5008658;28;20601;-66
2023/08/27 08:27:06;;;;;;;8.48;6.22;;;16.50;99.90;;;;;;5011989;28;20205;-66
2023/08/27 08:29:33;;;;;;;7.38;6.13;;;16.60;99.90;;;;;;4989115;28;20244;-66
2023/08/27 08:32:00;;;;;;;6.80;6.15;;;16.60;99.90;;;;;;5022156;28;20312;-66
2023/08/27 08:34:28;;;;;;;7.10;5.03;;;16.60;99.90;;;;;;5008208;28;20223;-66
2023/08/27 08:36:55;;;;;;;6.07;5.13;;;16.70;99.90;;;;;;5012117;28;20224;-66
2023/08/27 08:39:22;;;;;;;5.22;4.72;;;16.80;99.90;;;;;;4997857;28;20212;-66
2023/08/27 08:41:55;;;;;;;5.70;4.95;;;16.70;99.90;;;;;;5009293;28;20205;-66
2023/08/27 08:44:33;;;;;;;6.70;4.72;;;16.80;99.90;;;;;;4996732;28;20212;-66
2023/08/27 08:47:00;;;;;;;4.43;3.78;;;17.00;99.90;;;;;;5014175;28;20221;-66
2023/08/27 08:49:30;;;;;;;4.25;3.78;;;17.10;99.90;;;;;;4960713;28;20232;-66
2023/08/27 08:52:03;;;;;;;4.18;3.55;;;17.10;99.90;;;;;;5016129;28;20695;-66
2023/08/27 08:54:30;;;;;;;4.28;3.88;;;17.20;99.90;;;;;;4989123;28;20201;-66
2023/08/27 08:57:01;;;;;;;5.97;3.80;;;17.20;99.90;;;;;;5001291;28;20221;-66
2023/08/27 08:59:30;;;;;;;3.53;3.22;;;17.40;99.90;;;;;;5015280;28;20222;-66
2023/08/27 09:01:58;;;;;;;6.55;3.60;;;17.30;99.90;;;;;;4973698;28;20233;-66
2023/08/27 09:04:26;;;;;;;3.58;3.05;;;17.50;99.90;;;;;;4991764;28;20378;-66
2023/08/27 09:06:54;;;;;;;3.50;2.78;;;17.60;99.90;;;;;;5023410;28;20222;-66
2023/08/27 09:09:21;;;;;;;3.35;3.03;;;17.60;99.90;;;;;;5002959;28;20683;-66
2023/08/27 09:11:50;;;;;;;4.10;2.65;;;17.60;99.90;;;;;;5002483;28;20224;-66
2023/08/27 09:14:17;;;;;;;3.40;2.55;;;17.70;99.90;;;;;;5010897;28;20276;-66
2023/08/27 09:16:45;;;;;;;3.40;2.58;;;17.80;99.90;;;;;;4972461;28;20213;-66
2023/08/27 09:19:12;;;;;;;3.88;2.33;;;17.80;99.90;;;;;;5013212;28;20767;-66
2023/08/27 09:21:41;;;;;;;4.38;3.00;;;17.80;99.90;;;;;;4999831;28;20608;-66
2023/08/27 09:24:08;;;;;;;3.08;2.70;;;17.80;99.90;;;;;;5009873;28;20201;-66
2023/08/27 09:26:35;;;;;;;5.18;3.22;;;17.70;99.90;;;;;;4989737;28;20726;-66
2023/08/27 09:29:02;;;;;;;3.97;3.20;;;17.70;99.90;;;;;;5014801;28;20217;-66
2023/08/27 09:31:39;;;;;;;5.13;3.13;;;17.70;99.90;;;;;;4980053;28;20448;-66
2023/08/27 09:34:08;;;;;;;3.40;3.08;;;17.60;99.90;;;;;;5016641;28;20658;-66
2023/08/27 09:36:38;;;;;;;4.22;3.15;;;17.50;99.90;;;;;;5010913;28;20339;-66
2023/08/27 09:39:09;;;;;;;4.32;3.67;;;17.50;99.90;;;;;;4981638;28;20232;-66
2023/08/27 09:41:38;;;;;;;7.28;3.95;;;17.40;99.90;;;;;;5004204;28;20226;-66
2023/08/27 09:44:09;;;;;;;4.85;3.72;;;17.30;99.90;;;;;;4989437;28;20227;-66
2023/08/27 09:46:36;;;;;;;5.53;3.80;;;17.10;99.90;;;;;;4979706;28;20232;-67
2023/08/27 09:49:06;;;;;;;4.38;3.85;;;16.90;99.90;;;;;;4993982;28;20228;-66
2023/08/27 09:51:35;;;;;;;4.60;3.95;;;16.80;99.90;;;;;;5011818;28;20244;-66
2023/08/27 09:54:02;;;;;;;4.85;3.78;;;16.80;99.90;;;;;;5016402;28;20559;-67
2023/08/27 09:56:29;;;;;;;5.53;3.75;;;16.70;99.90;;;;;;5003576;28;20859;-67
2023/08/27 09:58:57;;;;;;;4.03;3.70;;;16.40;99.90;;;;;;5010876;28;20206;-66
2023/08/27 10:01:25;;;;;;;4.25;3.80;;;16.50;99.90;;;;;;5006379;28;20737;-67
2023/08/27 10:03:52;;;;;;;5.90;3.88;;;16.40;99.90;;;;;;4985779;28;20620;-67
2023/08/27 10:06:19;;;;;;;6.57;3.95;;;16.30;99.90;;;;;;5006055;28;20232;-67
2023/08/27 10:08:52;;;;;;;11.93;4.30;;;16.40;99.90;;;;;;5013116;28;20211;-68
2023/08/27 10:11:22;;;;;;;6.20;5.60;;;16.30;99.90;;;;;;5008908;28;20204;-68
2023/08/27 10:13:49;;;;;;;7.03;5.80;;;16.20;99.90;;;;;;4995356;28;20228;-68
2023/08/27 10:16:17;;;;;;;6.22;5.47;;;16.30;99.90;;;;;;5010811;28;20687;-68
2023/08/27 10:18:44;;;;;;;8.10;4.78;;;16.20;99.90;;;;;;4993388;28;20220;-68
2023/08/27 10:21:12;;;;;;;8.07;4.40;;;16.00;99.90;;;;;;5005735;28;20745;-68
2023/08/27 10:23:40;;;;;;;8.15;4.78;;;16.10;99.90;;;;;;5019905;28;20571;-68
2023/08/27 10:26:10;;;;;;;9.52;4.22;;;16.00;99.90;;;;;;5012070;28;20979;-68
2023/08/27 10:28:36;;;;;;;6.72;4.57;;;16.10;99.90;;;;;;5003521;28;20228;-69
2023/08/27 10:31:05;;;;;;;6.63;4.53;;;16.10;99.90;;;;;;5015077;28;20224;-69
2023/08/27 10:33:32;;;;;;;4.63;3.47;;;16.10;99.90;;;;;;4989493;28;20229;-69
2023/08/27 10:36:04;;;;;;;8.43;3.60;;;16.00;99.90;;;;;;5021238;28;20664;-69
2023/08/27 10:38:32;;;;;;;4.13;3.08;;;16.00;99.90;;;;;;5020100;28;20214;-69
2023/08/27 10:41:01;;;;;;;4.03;2.85;;;15.90;99.90;;;;;;5000151;28;20602;-69
2023/08/27 10:43:33;;;;;;;5.72;3.40;;;16.00;99.90;;;;;;5002048;28;20213;-69
2023/08/27 10:46:10;;;;;;;2.78;2.30;;;16.00;99.90;;;;;;4999340;28;20209;-69
2023/08/27 10:48:38;;;;;;;2.58;2.15;;;16.10;99.90;;;;;;4986719;28;20228;-69
2023/08/27 10:51:13;;;;;;;3.95;2.70;;;16.10;99.90;;;;;;5009189;28;20329;-69
2023/08/27 10:53:40;;;;;;;5.07;2.67;;;16.20;99.90;;;;;;5012072;28;20562;-69
2023/08/27 10:56:36;;;;;;;3.33;2.38;;;16.60;99.90;;;;;;5000462;28;20194;-69
2023/08/27 10:59:07;;;;;;;2.20;2.00;;;16.40;99.90;;;;;;5002690;28;20225;-69
2023/08/27 11:01:37;;;;;;;2.58;2.25;;;16.30;99.90;;;;;;4994360;28;20240;-69
2023/08/27 11:04:06;;;;;;;2.80;2.00;;;16.30;99.90;;;;;;4974431;28;20258;-69
2023/08/27 11:06:40;;;;;;;2.00;1.80;;;16.30;99.90;;;;;;5010618;28;20228;-69
2023/08/27 11:09:17;;;;;;;1.70;1.60;;;16.30;99.90;;;;;;5012682;28;20767;-69
2023/08/27 11:11:45;;;;;;;1.80;1.70;;;16.30;99.90;;;;;;4998965;28;20943;-69
2023/08/27 11:14:15;;;;;;;2.25;1.50;;;16.30;99.90;;;;;;4989749;28;20479;-69
2023/08/27 11:16:47;;;;;;;1.90;1.50;;;16.30;99.90;;;;;;4994743;28;20684;-69
2023/08/27 11:19:14;;;;;;;1.60;1.50;;;16.30;99.90;;;;;;5012529;28;20552;-69
2023/08/27 11:21:47;;;;;;;2.47;1.80;;;16.40;99.90;;;;;;4985636;28;20229;-69
2023/08/27 11:24:18;;;;;;;1.55;1.45;;;16.40;99.90;;;;;;4998323;28;20556;-69
2023/08/27 11:26:47;;;;;;;3.33;1.65;;;16.50;99.90;;;;;;5018069;28;20222;-69
2023/08/27 11:29:16;;;;;;;1.65;1.55;;;16.60;99.90;;;;;;4996969;28;21537;-69
2023/08/27 11:31:45;;;;;;;1.65;1.55;;;16.70;99.90;;;;;;5020376;28;20220;-69
2023/08/27 11:34:14;;;;;;;1.70;1.60;;;16.70;99.90;;;;;;5002235;28;20307;-69
2023/08/27 11:36:41;;;;;;;2.28;1.40;;;16.80;99.90;;;;;;4981930;28;20236;-69
2023/08/27 11:39:11;;;;;;;1.45;1.35;;;17.00;99.90;;;;;;5005819;28;20603;-69
2023/08/27 11:41:39;;;;;;;3.13;1.88;;;17.00;99.90;;;;;;5008724;28;20233;-69
2023/08/27 11:44:07;;;;;;;1.45;1.35;;;17.10;99.90;;;;;;5008268;28;20222;-69
2023/08/27 11:46:36;;;;;;;1.80;1.63;;;17.10;99.90;;;;;;5009440;28;21054;-70
2023/08/27 11:49:03;;;;;;;1.23;1.13;;;17.70;99.90;;;;;;5008986;28;20257;-69
2023/08/27 11:51:30;;;;;;;1.52;1.42;;;18.40;99.90;;;;;;4967855;28;20225;-69
2023/08/27 11:53:57;;;;;;;1.42;1.13;;;17.30;99.90;;;;;;5009330;28;20232;-69
2023/08/27 11:56:24;;;;;;;1.73;1.38;;;17.00;99.90;;;;;;5011447;28;20221;-69
2023/08/27 11:58:51;;;;;;;1.48;1.30;;;17.50;99.90;;;;;;5008675;28;20955;-69
2023/08/27 12:01:20;;;;;;;1.58;1.20;;;17.50;99.90;;;;;;5010483;28;20283;-69
2023/08/27 12:03:49;;;;;;;1.52;1.38;;;17.90;99.90;;;;;;5006539;28;20237;-68
2023/08/27 12:06:22;;;;;;;1.50;1.20;;;17.50;99.90;;;;;;4974590;28;20237;-69
2023/08/27 12:08:49;;;;;;;1.65;1.27;;;17.50;99.90;;;;;;5000221;28;20226;-69
2023/08/27 12:11:16;;;;;;;1.60;1.50;;;17.60;99.90;;;;;;5008470;28;20600;-68
2023/08/27 12:13:47;;;;;;;1.40;1.30;;;17.60;99.90;;;;;;5009473;28;20691;-68
2023/08/27 12:16:15;;;;;;;2.95;1.70;;;17.80;99.90;;;;;;4997696;28;20702;-69
2023/08/27 12:18:46;;;;;;;1.67;1.52;;;17.80;99.90;;;;;;5010011;28;20595;-68
2023/08/27 12:21:14;;;;;;;1.90;1.80;;;17.70;99.90;;;;;;4980163;28;20406;-69
2023/08/27 12:23:51;;;;;;;2.22;1.85;;;17.80;99.90;;;;;;4965004;28;20218;-68
2023/08/27 12:26:19;;;;;;;2.00;1.85;;;17.80;99.90;;;;;;5016287;28;20193;-68
2023/08/27 12:28:53;;;;;;;1.75;1.65;;;17.90;99.90;;;;;;5010354;28;20623;-68
2023/08/27 12:31:23;;;;;;;2.25;1.40;;;17.80;99.90;;;;;;5010051;28;20193;-69
2023/08/27 12:33:49;;;;;;;2.83;1.45;;;17.80;99.90;;;;;;5028026;28;20216;-69
2023/08/27 12:36:18;;;;;;;1.30;1.15;;;18.00;99.90;;;;;;5010415;28;20232;-69
2023/08/27 12:38:44;;;;;;;2.45;1.55;;;18.00;99.90;;;;;;4983061;28;20443;-69
2023/08/27 12:41:11;;;;;;;1.60;1.33;;;18.10;99.90;;;;;;5011647;28;20649;-69
2023/08/27 12:43:39;;;;;;;1.80;1.10;;;18.10;99.90;;;;;;4988325;28;21077;-69
2023/08/27 12:46:06;;;;;;;1.83;1.35;;;18.10;99.90;;;;;;5022613;28;20225;-68
2023/08/27 12:48:34;;;;;;;2.33;1.40;;;18.20;99.90;;;;;;5009170;28;20287;-69
2023/08/27 12:51:01;;;;;;;2.05;1.10;;;18.20;99.90;;;;;;5012359;28;20229;-69